• Join FlightAware (Why Join?)
  • Login
  • US Flag 
03:31AM EDT


 

Airport Tracker/Info


-or-


 

Live Flight TrackerFlight Track Log ✈ THY2469 ✈ 27-Sep-2013 ✈ LTAF / ADA - LTBA / IST

Flight Track Log - Related Links

Times and Time Zones

All times are in EDT time to prevent confusion due to time zone crossing. See the THY2469 flight status page for this flight to view local times or setup timezone preferences in your user account.

Time Position Orientation Groundspeed Altitude Reporting Facility
EDT Latitude Longitude Course Direction KTS MPH feet Rate Location/Type
01:23PM 37.5156 34.4892 311° West  Level Estimated
01:24PM 37.5745 34.4006 310° West  Level Estimated
01:25PM 37.6334 34.3119 310° West  Level Estimated
01:26PM 37.6922 34.2230 310° West  Level Estimated
01:27PM 37.7510 34.1340 310° West  Level Estimated
01:28PM 37.8096 34.0448 310° West  Level Estimated
01:29PM 37.8683 33.9555 310° West  Level Estimated
01:30PM 37.9268 33.8660 310° West  Level Estimated
01:31PM 37.9853 33.7764 310° West  Level Estimated
01:32PM 38.0437 33.6867 310° West  Level Estimated
01:33PM 38.1020 33.5968 310° West  Level Estimated
01:34PM 38.1603 33.5068 309° West  Level Estimated
01:35PM 38.2185 33.4166 309° West  Level Estimated
01:36PM 38.2766 33.3263 309° West  Level Estimated
01:37PM 38.3347 33.2359 309° West  Level Estimated
01:38PM 38.3927 33.1453 309° West  Level Estimated
01:39PM 38.4506 33.0545 309° West  Level Estimated
01:40PM 38.5084 32.9636 309° West  Level Estimated
01:41PM 38.5662 32.8726 309° West  Level Estimated
01:42PM 38.6239 32.7814 309° West  Level Estimated
01:43PM 38.6815 32.6901 309° West  Level Estimated
01:44PM 38.7391 32.5986 309° West  Level Estimated
01:45PM 38.7966 32.5070 309° West  Level Estimated
01:46PM 38.8540 32.4152 309° West  Level Estimated
01:47PM 38.9114 32.3233 309° West  Level Estimated
01:48PM 38.9687 32.2312 309° West  Level Estimated
01:49PM 39.0259 32.1390 309° West  Level Estimated
01:50PM 39.0830 32.0466 309° West  Level Estimated
01:51PM 39.1401 31.9541 309° West  Level Estimated
01:52PM 39.1971 31.8614 308° West  Level Estimated
01:53PM 39.2540 31.7686 308° West  Level Estimated
01:54PM 39.3108 31.6756 308° West  Level Estimated
01:55PM 39.3676 31.5825 308° West  Level Estimated
01:56PM 39.4243 31.4893 308° West  Level Estimated
01:57PM 39.4809 31.3958 308° West  Level Estimated
01:58PM 39.5375 31.3022 308° West  Level Estimated
01:59PM 39.5939 31.2085 308° West  Level Estimated
02:00PM 39.6503 31.1146 308° West  Level Estimated
02:01PM 39.7066 31.0206 308° West  Level Estimated
02:02PM 39.7629 30.9264 308° West  Level Estimated
02:03PM 39.8190 30.8321 308° West  Level Estimated
02:04PM 39.8751 30.7376 308° West  Level Estimated
02:05PM 39.9311 30.6429 308° West  Level Estimated
02:06PM 39.9871 30.5481 308° West  Level Estimated
02:07PM 40.0429 30.4532 308° West  Level Estimated
02:08PM 40.0987 30.3580 307° West  Level Estimated
02:09PM 40.1544 30.2628 307° West  Level Estimated
02:10PM 40.2100 30.1674 307° West  Level Estimated
02:11PM 40.2656 30.0718 307° West  Level Estimated
02:12PM 40.3211 29.9760 307° West  Level Estimated
02:13PM 40.3765 29.8801 307° West  Level Estimated
02:14PM 40.4318 29.7841 307° West  Level Estimated
02:15PM 40.4870 29.6879 307° West  Level Estimated
02:16PM 40.5421 29.5915 307° West  Level Estimated
02:17PM 40.5972 29.4950 307° West  Level Estimated
02:18PM 40.6522 29.3983 307° West  Level Estimated
02:19PM 40.7071 29.3014 307° West  Level Estimated
02:20PM 40.7620 29.2044 307° West  Level Estimated
02:21PM 40.8167 29.1072 307° West  Level Estimated
02:22PM 40.8713 29.0099 307° West  Level Estimated
02:23PM 40.9259 28.9124 307° West  Level Estimated
02:24PM 40.9769 28.8211 306° West  Level Estimated
02:25PM 40.9769 28.8211 21° North  Level Estimated
02:26PM 40.9769 28.8211 21° North  Level Estimated
02:27PM 40.9769 28.8211 21° North  Level Estimated
02:28PM 40.9769 28.8211 21° North  Level Estimated
02:29PM 40.9769 28.8211 21° North  Level Estimated
02:30PM 40.9769 28.8211 21° North  Level Estimated
02:31PM 40.9769 28.8211 21° North  Level Estimated
02:32PM 40.9769 28.8211 21° North  Level Estimated
02:33PM 40.9769 28.8211 21° North  Level Estimated
02:34PM 40.9769 28.8211 21° North  Level Estimated
02:35PM 40.9769 28.8211 21° North  Level Estimated
02:36PM 40.9769 28.8211 21° North  Level Estimated
02:37PM 40.9769 28.8211 21° North  Level Estimated
02:38PM 40.9769 28.8211 21° North  Level Estimated
02:39PM 40.9769 28.8211 21° North  Level Estimated
02:40PM 40.9769 28.8211 21° North  Level Estimated